Time;durP1;ratioP1;P1;durP2;ratioP2;P2;SDS_P1;SDS_P2;PMS_P1;PMS_P2;Temp;Humidity;BMP_temperature;BMP_pressure;BME280_temperature;BME280_humidity;BME280_pressure;Samples;Min_cycle;Max_cycle;Signal;HPM_P1;HPM_P2
2023/12/30 00:01:22;;;;;;;;;;;6.50;99.90;;;;;;4962477;28;19925;-76
2023/12/30 00:03:48;;;;;;;;;;;6.50;99.90;;;;;;4958195;28;19940;-74
2023/12/30 00:06:15;;;;;;;;;;;6.60;99.90;;;;;;4999702;28;19925;-75
2023/12/30 00:08:41;;;;;;;;;;;6.60;99.90;;;;;;4957699;28;19925;-75
2023/12/30 00:11:07;;;;;;;;;;;6.60;99.90;;;;;;4979332;28;19929;-74
2023/12/30 00:13:33;;;;;;;;;;;6.70;99.90;;;;;;4997057;28;19924;-74
2023/12/30 00:15:59;;;;;;;;;;;6.60;99.90;;;;;;4959762;28;19925;-75
2023/12/30 00:18:25;;;;;;;;;;;6.60;99.90;;;;;;5019141;28;19925;-74
2023/12/30 00:20:51;;;;;;;;;;;6.70;99.90;;;;;;4945836;28;19925;-74
2023/12/30 00:23:20;;;;;;;;;;;6.70;99.90;;;;;;4981427;28;19928;-73
2023/12/30 00:25:46;;;;;;;;;;;6.60;99.90;;;;;;4952707;28;19935;-74
2023/12/30 00:28:12;;;;;;;;;;;6.60;99.90;;;;;;4986617;28;19936;-76
2023/12/30 00:30:38;;;;;;;;;;;6.60;99.90;;;;;;4980791;28;19935;-75
2023/12/30 00:33:05;;;;;;;;;;;6.60;99.90;;;;;;4985385;28;19956;-75
2023/12/30 00:35:31;;;;;;;;;;;6.60;99.90;;;;;;4942710;28;19925;-75
2023/12/30 00:37:57;;;;;;;;;;;6.50;99.90;;;;;;4987544;28;19952;-75
2023/12/30 00:40:23;;;;;;;;;;;6.50;99.90;;;;;;4965103;28;21740;-74
2023/12/30 00:42:49;;;;;;;;;;;6.40;99.90;;;;;;4988779;28;20542;-75
2023/12/30 00:45:14;;;;;;;;;;;6.40;99.90;;;;;;4936317;28;19925;-75
2023/12/30 00:47:40;;;;;;;;;;;6.50;99.90;;;;;;4985674;28;19936;-75
2023/12/30 00:50:07;;;;;;;;;;;6.40;99.90;;;;;;4981310;28;19924;-74
2023/12/30 00:52:32;;;;;;;;;;;6.40;99.90;;;;;;4995250;28;19929;-75
2023/12/30 00:54:58;;;;;;;;;;;6.40;99.90;;;;;;4953468;28;19936;-74
2023/12/30 00:57:24;;;;;;;;;;;6.40;99.90;;;;;;4983991;28;20196;-76
2023/12/30 00:59:50;;;;;;;;;;;6.40;99.90;;;;;;4965424;28;19931;-75
2023/12/30 01:02:16;;;;;;;;;;;6.40;99.90;;;;;;4988680;28;20186;-75
2023/12/30 01:04:42;;;;;;;;;;;6.40;99.90;;;;;;4956414;28;19936;-75
2023/12/30 01:07:08;;;;;;;;;;;6.40;99.90;;;;;;4980677;28;20654;-75
2023/12/30 01:09:34;;;;;;;;;;;6.50;99.90;;;;;;4952529;28;20727;-75
2023/12/30 01:12:00;;;;;;;;;;;6.40;99.90;;;;;;4972280;28;19925;-75
2023/12/30 01:14:25;;;;;;;;;;;6.40;99.90;;;;;;4956726;28;19932;-75
2023/12/30 01:16:51;;;;;;;;;;;6.40;99.90;;;;;;4979915;28;20679;-75
2023/12/30 01:19:17;;;;;;;;;;;6.40;99.90;;;;;;4954685;28;19931;-74
2023/12/30 01:21:43;;;;;;;;;;;6.40;99.90;;;;;;4965495;28;19936;-75
2023/12/30 01:24:10;;;;;;;;;;;6.40;99.90;;;;;;4952819;28;19944;-75
2023/12/30 01:26:39;;;;;;;;;;;6.40;99.90;;;;;;4997178;28;19925;-74
2023/12/30 01:29:05;;;;;;;;;;;6.40;99.90;;;;;;4953562;28;19925;-74
2023/12/30 01:31:30;;;;;;;;;;;6.40;99.90;;;;;;4979693;28;20199;-75
2023/12/30 01:33:56;;;;;;;;;;;6.40;99.90;;;;;;4951011;28;19966;-76
2023/12/30 01:36:22;;;;;;;;;;;6.40;99.90;;;;;;4982273;28;20392;-75
2023/12/30 01:38:48;;;;;;;;;;;6.30;99.90;;;;;;4966572;28;19929;-75
2023/12/30 01:41:14;;;;;;;;;;;6.30;99.90;;;;;;4958794;28;19925;-73
2023/12/30 01:43:40;;;;;;;;;;;6.30;99.90;;;;;;4953449;28;22593;-74
2023/12/30 01:46:07;;;;;;;;;;;6.30;99.90;;;;;;5013079;28;20790;-74
2023/12/30 01:48:33;;;;;;;;;;;6.20;99.90;;;;;;4977124;28;19925;-74
2023/12/30 01:51:01;;;;;;;;;;;6.30;99.90;;;;;;4952527;28;20251;-73
2023/12/30 01:53:28;;;;;;;;;;;6.20;99.90;;;;;;4979277;28;19929;-75
2023/12/30 01:55:55;;;;;;;;;;;6.20;99.90;;;;;;4961566;28;20557;-75
2023/12/30 01:58:21;;;;;;;;;;;6.20;99.90;;;;;;4982220;28;19933;-74
2023/12/30 02:00:51;;;;;;;;;;;6.20;99.90;;;;;;4957848;28;20183;-74
2023/12/30 02:03:18;;;;;;;;;;;6.30;99.90;;;;;;4984059;28;20533;-75
2023/12/30 02:05:46;;;;;;;;;;;6.30;99.90;;;;;;4954540;28;19992;-74
2023/12/30 02:08:12;;;;;;;;;;;6.30;99.90;;;;;;4987761;28;19924;-74
2023/12/30 02:10:38;;;;;;;;;;;6.30;99.90;;;;;;4972875;28;19935;-74
2023/12/30 02:13:04;;;;;;;;;;;6.40;99.90;;;;;;4991850;28;19925;-75
2023/12/30 02:15:30;;;;;;;;;;;6.30;99.90;;;;;;4961933;28;19925;-74
2023/12/30 02:17:56;;;;;;;;;;;6.40;99.90;;;;;;4988498;28;19931;-74
2023/12/30 02:20:22;;;;;;;;;;;6.40;99.90;;;;;;4955676;28;19945;-75
2023/12/30 02:22:57;;;;;;;;;;;6.50;99.90;;;;;;4983843;28;20721;-74
2023/12/30 02:25:23;;;;;;;;;;;6.50;99.90;;;;;;4954626;28;20530;-74
2023/12/30 02:27:49;;;;;;;;;;;6.40;99.90;;;;;;4982070;28;19952;-74
2023/12/30 02:30:15;;;;;;;;;;;6.50;99.90;;;;;;4957028;28;20342;-74
2023/12/30 02:32:41;;;;;;;;;;;6.40;99.90;;;;;;4976293;28;20387;-74
2023/12/30 02:35:07;;;;;;;;;;;6.40;99.90;;;;;;4952770;28;19925;-74
2023/12/30 02:37:33;;;;;;;;;;;6.50;99.90;;;;;;4978974;28;19929;-75
2023/12/30 02:39:59;;;;;;;;;;;6.50;99.90;;;;;;4946282;28;19936;-73
2023/12/30 02:42:25;;;;;;;;;;;6.50;99.90;;;;;;4981769;28;20735;-74
2023/12/30 02:44:51;;;;;;;;;;;6.50;99.90;;;;;;4948966;28;19936;-75
2023/12/30 02:47:17;;;;;;;;;;;6.40;99.90;;;;;;4970271;28;19925;-75
2023/12/30 02:49:44;;;;;;;;;;;6.40;99.90;;;;;;4965765;28;19936;-74
2023/12/30 02:52:10;;;;;;;;;;;6.40;99.90;;;;;;4973179;28;19932;-74
2023/12/30 02:54:36;;;;;;;;;;;6.40;99.90;;;;;;4951932;28;19932;-74
2023/12/30 02:57:06;;;;;;;;;;;6.40;99.90;;;;;;4982892;28;19929;-75
2023/12/30 02:59:32;;;;;;;;;;;6.40;99.90;;;;;;4971700;28;19935;-75
2023/12/30 03:01:58;;;;;;;;;;;6.40;99.90;;;;;;4966130;28;19929;-74
2023/12/30 03:04:24;;;;;;;;;;;6.40;99.90;;;;;;4951162;28;19929;-70
2023/12/30 03:06:50;;;;;;;;;;;6.40;99.90;;;;;;4986285;28;19929;-69
2023/12/30 03:09:15;;;;;;;;;;;6.40;99.90;;;;;;4952976;28;20663;-69
2023/12/30 03:11:42;;;;;;;;;;;6.40;99.90;;;;;;4982352;28;19936;-70
2023/12/30 03:14:08;;;;;;;;;;;6.30;99.90;;;;;;4966897;28;19925;-70
2023/12/30 03:16:34;;;;;;;;;;;6.40;99.90;;;;;;4986771;28;20026;-69
2023/12/30 03:19:00;;;;;;;;;;;6.40;99.90;;;;;;4953600;28;19937;-70
2023/12/30 03:21:26;;;;;;;;;;;6.40;99.90;;;;;;4980293;28;19925;-70
2023/12/30 03:23:52;;;;;;;;;;;6.40;99.90;;;;;;4936976;28;19941;-70
2023/12/30 03:26:18;;;;;;;;;;;6.40;99.90;;;;;;4963318;28;20277;-70
2023/12/30 03:28:44;;;;;;;;;;;6.30;99.90;;;;;;4953794;28;19933;-70
2023/12/30 03:31:23;;;;;;;;;;;6.40;99.90;;;;;;5009833;28;19975;-69
2023/12/30 03:33:49;;;;;;;;;;;6.30;99.90;;;;;;4955446;28;20222;-69
2023/12/30 03:36:15;;;;;;;;;;;6.30;99.90;;;;;;4970142;28;19925;-69
2023/12/30 03:38:41;;;;;;;;;;;6.20;99.90;;;;;;4956004;28;20352;-70
2023/12/30 03:41:07;;;;;;;;;;;6.30;99.90;;;;;;4990295;28;19924;-69
2023/12/30 03:43:33;;;;;;;;;;;6.30;99.90;;;;;;4976832;28;20123;-70
2023/12/30 03:45:59;;;;;;;;;;;6.20;99.90;;;;;;4961831;28;19929;-69
2023/12/30 03:48:50;;;;;;;;;;;6.20;99.90;;;;;;4997340;28;19925;-69
2023/12/30 03:51:22;;;;;;;;;;;6.20;99.90;;;;;;4999058;28;19917;-69
2023/12/30 03:53:50;;;;;;;;;;;6.30;99.90;;;;;;4953792;28;20454;-70
2023/12/30 03:56:16;;;;;;;;;;;6.20;99.90;;;;;;4974891;28;19921;-70
2023/12/30 03:58:42;;;;;;;;;;;6.20;99.90;;;;;;4954597;28;19948;-70
2023/12/30 04:01:08;;;;;;;;;;;6.20;99.90;;;;;;4983215;28;19975;-69
2023/12/30 04:03:34;;;;;;;;;;;6.20;99.90;;;;;;4972235;28;19931;-70
2023/12/30 04:06:00;;;;;;;;;;;6.20;99.90;;;;;;4974145;28;19931;-70
2023/12/30 04:08:26;;;;;;;;;;;6.20;99.90;;;;;;5012502;28;20277;-70
2023/12/30 04:10:52;;;;;;;;;;;6.30;99.90;;;;;;4951012;28;19925;-70
2023/12/30 04:13:18;;;;;;;;;;;6.30;99.90;;;;;;4984713;28;19925;-70
2023/12/30 04:15:44;;;;;;;;;;;6.30;99.90;;;;;;4985620;28;19935;-70
2023/12/30 04:18:10;;;;;;;;;;;6.30;99.90;;;;;;4985306;28;19936;-70
2023/12/30 04:20:36;;;;;;;;;;;6.30;99.90;;;;;;4982030;28;20280;-70
2023/12/30 04:23:02;;;;;;;;;;;6.20;99.90;;;;;;4997206;28;20132;-69
2023/12/30 04:25:28;;;;;;;;;;;6.30;99.90;;;;;;4971406;28;20632;-70
2023/12/30 04:27:55;;;;;;;;;;;6.20;99.90;;;;;;4978422;28;19956;-70
2023/12/30 04:30:21;;;;;;;;;;;6.10;99.90;;;;;;4963664;28;20423;-69
2023/12/30 04:32:47;;;;;;;;;;;6.10;99.90;;;;;;4973244;28;19929;-69
2023/12/30 04:35:13;;;;;;;;;;;6.10;99.90;;;;;;4958065;28;19929;-70
2023/12/30 04:37:39;;;;;;;;;;;6.00;99.90;;;;;;4979204;28;20418;-69
2023/12/30 04:40:05;;;;;;;;;;;6.00;99.90;;;;;;4957992;28;19924;-70
2023/12/30 04:42:31;;;;;;;;;;;6.00;99.90;;;;;;4985056;28;20285;-70
2023/12/30 04:44:57;;;;;;;;;;;6.00;99.90;;;;;;4951276;28;19943;-69
2023/12/30 04:47:22;;;;;;;;;;;6.00;99.90;;;;;;4975069;28;19925;-70
2023/12/30 04:49:48;;;;;;;;;;;6.00;99.90;;;;;;4949785;28;19925;-71
2023/12/30 04:52:14;;;;;;;;;;;6.10;99.90;;;;;;4982518;28;19925;-70
2023/12/30 04:54:42;;;;;;;;;;;6.10;99.90;;;;;;4958931;28;19925;-70
2023/12/30 04:57:08;;;;;;;;;;;6.10;99.90;;;;;;4988388;28;19925;-69
2023/12/30 04:59:34;;;;;;;;;;;6.00;99.90;;;;;;4961438;28;21144;-69
2023/12/30 05:02:00;;;;;;;;;;;6.10;99.90;;;;;;4973625;28;19929;-69
2023/12/30 05:04:26;;;;;;;;;;;6.10;99.90;;;;;;4955333;28;20514;-69
2023/12/30 05:06:52;;;;;;;;;;;6.10;99.90;;;;;;4977550;28;19936;-71
2023/12/30 05:09:19;;;;;;;;;;;6.00;99.90;;;;;;4955145;28;20436;-70
2023/12/30 05:11:45;;;;;;;;;;;6.00;99.90;;;;;;4974688;28;19925;-70
2023/12/30 05:14:11;;;;;;;;;;;6.10;99.90;;;;;;4954643;28;19929;-69
2023/12/30 05:16:44;;;;;;;;;;;6.00;99.90;;;;;;4968306;28;19932;-70
2023/12/30 05:19:10;;;;;;;;;;;6.00;99.90;;;;;;4955857;28;19924;-70
2023/12/30 05:21:36;;;;;;;;;;;6.00;99.90;;;;;;4979576;28;19925;-69
2023/12/30 05:24:02;;;;;;;;;;;6.00;99.90;;;;;;4959018;28;19986;-69
2023/12/30 05:26:28;;;;;;;;;;;6.00;99.90;;;;;;5001400;28;19929;-69
2023/12/30 05:28:55;;;;;;;;;;;6.00;99.90;;;;;;4967211;28;20108;-69
2023/12/30 05:31:21;;;;;;;;;;;6.10;99.90;;;;;;4987547;28;19921;-70
2023/12/30 05:33:47;;;;;;;;;;;6.00;99.90;;;;;;4956252;28;19936;-69
2023/12/30 05:36:13;;;;;;;;;;;6.00;99.90;;;;;;4995899;28;19924;-69
2023/12/30 05:38:39;;;;;;;;;;;6.00;99.90;;;;;;4958438;28;19929;-69
2023/12/30 05:41:05;;;;;;;;;;;6.00;99.90;;;;;;4985666;28;19925;-71
2023/12/30 05:43:30;;;;;;;;;;;6.00;99.90;;;;;;4986829;28;21201;-70
2023/12/30 05:45:56;;;;;;;;;;;6.10;99.90;;;;;;4963752;28;19940;-70
2023/12/30 05:48:22;;;;;;;;;;;6.10;99.90;;;;;;4987439;28;19967;-70
2023/12/30 05:50:48;;;;;;;;;;;6.10;99.90;;;;;;4963965;28;19929;-70
2023/12/30 05:53:14;;;;;;;;;;;6.20;99.90;;;;;;4985652;28;19932;-70
2023/12/30 05:55:40;;;;;;;;;;;6.20;99.90;;;;;;4960686;28;20117;-70
2023/12/30 05:58:06;;;;;;;;;;;6.10;99.90;;;;;;5017868;28;21043;-71
2023/12/30 06:00:32;;;;;;;;;;;6.10;99.90;;;;;;4969459;28;19932;-70
2023/12/30 06:02:58;;;;;;;;;;;6.10;99.90;;;;;;4984997;28;19975;-70
2023/12/30 06:05:24;;;;;;;;;;;6.10;99.90;;;;;;4953982;28;20433;-71
2023/12/30 06:07:50;;;;;;;;;;;6.00;99.90;;;;;;4992089;28;19925;-74
2023/12/30 06:10:15;;;;;;;;;;;6.00;99.90;;;;;;4973172;28;19968;-74
2023/12/30 06:12:41;;;;;;;;;;;6.00;99.90;;;;;;4992035;28;19925;-73
2023/12/30 06:15:07;;;;;;;;;;;6.00;99.90;;;;;;4959858;28;19924;-74
2023/12/30 06:17:33;;;;;;;;;;;6.00;99.90;;;;;;4988833;28;19948;-74
2023/12/30 06:19:59;;;;;;;;;;;6.00;99.90;;;;;;4962241;28;20565;-74
2023/12/30 06:22:25;;;;;;;;;;;6.00;99.90;;;;;;4990589;28;19979;-74
2023/12/30 06:24:51;;;;;;;;;;;5.90;99.90;;;;;;4968274;28;19936;-73
2023/12/30 06:27:19;;;;;;;;;;;5.90;99.90;;;;;;4990131;28;20447;-73
2023/12/30 06:29:47;;;;;;;;;;;5.90;99.90;;;;;;4951690;28;19929;-73
2023/12/30 06:32:13;;;;;;;;;;;5.90;99.90;;;;;;4981881;28;20374;-73
2023/12/30 06:34:38;;;;;;;;;;;5.90;99.90;;;;;;4970833;28;19929;-73
2023/12/30 06:37:04;;;;;;;;;;;5.90;99.90;;;;;;4999137;28;20375;-73
2023/12/30 06:39:30;;;;;;;;;;;5.90;99.90;;;;;;4971059;28;19925;-73
2023/12/30 06:41:59;;;;;;;;;;;5.90;99.90;;;;;;4981550;28;19925;-73
2023/12/30 06:44:26;;;;;;;;;;;5.90;99.90;;;;;;4975167;28;21198;-73
2023/12/30 06:46:52;;;;;;;;;;;5.90;99.90;;;;;;4995299;28;19925;-73
2023/12/30 06:49:18;;;;;;;;;;;5.90;99.90;;;;;;4953792;28;19936;-74
2023/12/30 06:51:44;;;;;;;;;;;5.90;99.90;;;;;;4967221;28;19951;-74
2023/12/30 06:54:10;;;;;;;;;;;5.90;99.90;;;;;;4945282;28;20402;-75
2023/12/30 06:56:36;;;;;;;;;;;5.90;99.90;;;;;;4974859;28;19941;-73
2023/12/30 06:59:02;;;;;;;;;;;5.90;99.90;;;;;;4953001;28;20446;-73
2023/12/30 07:01:28;;;;;;;;;;;5.90;99.90;;;;;;4989166;28;19925;-73
2023/12/30 07:03:55;;;;;;;;;;;5.90;99.90;;;;;;4946187;28;19940;-72
2023/12/30 07:06:21;;;;;;;;;;;5.90;99.90;;;;;;4985688;28;19933;-73
2023/12/30 07:08:47;;;;;;;;;;;5.90;99.90;;;;;;4949266;28;19933;-73
2023/12/30 07:11:13;;;;;;;;;;;5.90;99.90;;;;;;4984766;28;20755;-73
2023/12/30 07:13:39;;;;;;;;;;;5.90;99.90;;;;;;4957571;28;19936;-74
2023/12/30 07:16:05;;;;;;;;;;;5.90;99.90;;;;;;5011178;28;20552;-73
2023/12/30 07:18:31;;;;;;;;;;;5.90;99.90;;;;;;4980241;28;20423;-73
2023/12/30 07:20:57;;;;;;;;;;;5.90;99.90;;;;;;4957570;28;19936;-74
2023/12/30 07:23:22;;;;;;;;;;;6.00;99.90;;;;;;4985505;28;20696;-74
2023/12/30 07:25:51;;;;;;;;;;;6.00;99.90;;;;;;4963695;28;19939;-74
2023/12/30 07:28:17;;;;;;;;;;;6.10;99.90;;;;;;4983222;28;19948;-74
2023/12/30 07:30:43;;;;;;;;;;;6.10;99.90;;;;;;4963514;28;19925;-74
2023/12/30 07:33:09;;;;;;;;;;;6.20;99.90;;;;;;4987039;28;20770;-74
2023/12/30 07:35:35;;;;;;;;;;;6.20;99.90;;;;;;4955971;28;19929;-73
2023/12/30 07:38:01;;;;;;;;;;;6.10;99.90;;;;;;4984555;28;19940;-74
2023/12/30 07:40:27;;;;;;;;;;;6.10;99.90;;;;;;4966258;28;21997;-73
2023/12/30 07:42:54;;;;;;;;;;;6.00;99.90;;;;;;4989516;28;20407;-73
2023/12/30 07:45:20;;;;;;;;;;;6.00;99.90;;;;;;4956721;28;19933;-73
2023/12/30 07:47:46;;;;;;;;;;;6.00;99.90;;;;;;4986186;28;20095;-73
2023/12/30 07:50:11;;;;;;;;;;;5.90;99.90;;;;;;4962712;28;19951;-74
2023/12/30 07:52:38;;;;;;;;;;;5.90;99.90;;;;;;4979257;28;20256;-74
2023/12/30 07:55:04;;;;;;;;;;;5.90;99.90;;;;;;4962832;28;21116;-73
2023/12/30 07:57:30;;;;;;;;;;;5.90;99.90;;;;;;4978133;28;20010;-73
2023/12/30 07:59:55;;;;;;;;;;;5.90;99.90;;;;;;4958361;28;19932;-72
2023/12/30 08:02:21;;;;;;;;;;;5.80;99.90;;;;;;4992478;28;19936;-73
2023/12/30 08:04:47;;;;;;;;;;;5.80;99.90;;;;;;4958021;28;19928;-73
2023/12/30 08:07:14;;;;;;;;;;;5.80;99.90;;;;;;4975258;28;19928;-73
2023/12/30 08:09:40;;;;;;;;;;;5.70;99.90;;;;;;4964522;28;19933;-72
2023/12/30 08:12:06;;;;;;;;;;;5.70;99.90;;;;;;4970308;28;19931;-73
2023/12/30 08:14:31;;;;;;;;;;;5.70;99.90;;;;;;4958926;28;19933;-74
2023/12/30 08:17:01;;;;;;;;;;;5.70;99.90;;;;;;4970681;28;21301;-73
2023/12/30 08:19:27;;;;;;;;;;;5.70;99.90;;;;;;4967406;28;19925;-73
2023/12/30 08:21:53;;;;;;;;;;;5.70;99.90;;;;;;4992701;28;19929;-73
2023/12/30 08:24:20;;;;;;;;;;;5.80;99.90;;;;;;4959379;28;19925;-72
2023/12/30 08:26:46;;;;;;;;;;;5.80;99.90;;;;;;4990753;28;20569;-73
2023/12/30 08:29:13;;;;;;;;;;;5.80;99.90;;;;;;4941897;28;20155;-73
2023/12/30 08:31:45;;;;;;;;;;;5.80;99.90;;;;;;4968250;28;19936;-73
2023/12/30 08:34:13;;;;;;;;;;;5.80;99.90;;;;;;4947546;28;20648;-73
2023/12/30 08:36:39;;;;;;;;;;;5.80;99.90;;;;;;4958973;28;19929;-73
2023/12/30 08:39:05;;;;;;;;;;;5.90;99.90;;;;;;4960392;28;20016;-72
2023/12/30 08:41:31;;;;;;;;;;;5.90;99.90;;;;;;4986044;28;19929;-73
2023/12/30 08:43:57;;;;;;;;;;;5.90;99.90;;;;;;4953938;28;19929;-73
2023/12/30 08:46:23;;;;;;;;;;;6.00;99.90;;;;;;5002870;28;19932;-74
2023/12/30 08:48:49;;;;;;;;;;;6.00;99.90;;;;;;4950715;28;20708;-72
2023/12/30 08:51:15;;;;;;;;;;;6.00;99.90;;;;;;4979071;28;19937;-73
2023/12/30 08:53:41;;;;;;;;;;;6.00;99.90;;;;;;4948748;28;19925;-72
2023/12/30 08:56:07;;;;;;;;;;;6.00;99.90;;;;;;4970090;28;19933;-72
2023/12/30 08:58:33;;;;;;;;;;;6.10;99.90;;;;;;4984750;28;20717;-73
2023/12/30 09:00:59;;;;;;;;;;;6.10;99.90;;;;;;4955008;28;20767;-73
2023/12/30 09:03:25;;;;;;;;;;;6.10;99.90;;;;;;4959657;28;19988;-72
2023/12/30 09:05:51;;;;;;;;;;;6.20;99.90;;;;;;4974698;28;20575;-71
2023/12/30 09:08:18;;;;;;;;;;;6.30;99.90;;;;;;4980932;28;19925;-72
2023/12/30 09:10:44;;;;;;;;;;;6.30;99.90;;;;;;4949240;28;20498;-72
2023/12/30 09:13:10;;;;;;;;;;;6.40;99.90;;;;;;4985815;28;19925;-73
2023/12/30 09:15:37;;;;;;;;;;;6.40;99.90;;;;;;4928485;28;19925;-72
2023/12/30 09:18:03;;;;;;;;;;;6.50;99.90;;;;;;4978167;28;19940;-73
2023/12/30 09:20:29;;;;;;;;;;;6.50;99.90;;;;;;4951334;28;19932;-72
2023/12/30 09:22:55;;;;;;;;;;;6.60;99.90;;;;;;4979409;28;19946;-74
2023/12/30 09:25:21;;;;;;;;;;;6.60;99.90;;;;;;4948626;28;20712;-73
2023/12/30 09:27:47;;;;;;;;;;;6.60;99.90;;;;;;4974614;28;19925;-73
2023/12/30 09:30:13;;;;;;;;;;;6.60;99.90;;;;;;4958306;28;19936;-72
2023/12/30 09:32:39;;;;;;;;;;;6.60;99.90;;;;;;4975888;28;20999;-68
2023/12/30 09:35:05;;;;;;;;;;;6.50;99.90;;;;;;4943370;28;19924;-68
2023/12/30 09:37:31;;;;;;;;;;;6.50;99.90;;;;;;4976212;28;19940;-68
2023/12/30 09:39:58;;;;;;;;;;;6.50;99.90;;;;;;4956890;28;19952;-68
2023/12/30 09:42:23;;;;;;;;;;;6.50;99.90;;;;;;4969921;28;19956;-68
2023/12/30 09:44:50;;;;;;;;;;;6.50;99.90;;;;;;4949311;28;20564;-67
2023/12/30 09:47:16;;;;;;;;;;;6.50;99.90;;;;;;4974762;28;20347;-67
2023/12/30 09:49:43;;;;;;;;;;;6.60;99.90;;;;;;4933286;28;20993;-68
2023/12/30 09:52:09;;;;;;;;;;;6.60;99.90;;;;;;4966331;28;19951;-66
2023/12/30 09:54:35;;;;;;;;;;;6.60;99.90;;;;;;4945608;28;19929;-68
2023/12/30 09:57:04;;;;;;;;;;;6.60;99.90;;;;;;4979512;28;19929;-68
2023/12/30 09:59:35;;;;;;;;;;;6.60;99.90;;;;;;4957540;28;19932;-68
2023/12/30 10:02:06;;;;;;;;;;;6.60;99.90;;;;;;4964801;28;20715;-68
2023/12/30 10:04:33;;;;;;;;;;;6.60;99.90;;;;;;4955617;28;19944;-68
2023/12/30 10:06:58;;;;;;;;;;;6.60;99.90;;;;;;4973700;28;19925;-69
2023/12/30 10:09:24;;;;;;;;;;;6.60;99.90;;;;;;4946306;28;20285;-67
2023/12/30 10:11:50;;;;;;;;;;;6.70;99.90;;;;;;4973292;28;19936;-67
2023/12/30 10:14:16;;;;;;;;;;;6.60;99.90;;;;;;4949379;28;19944;-68
2023/12/30 10:16:43;;;;;;;;;;;6.60;99.90;;;;;;4980257;28;20457;-67
2023/12/30 10:19:09;;;;;;;;;;;6.50;99.90;;;;;;4962053;28;19968;-67
2023/12/30 10:21:37;;;;;;;;;;;6.50;99.90;;;;;;4961185;28;19936;-67
2023/12/30 10:24:04;;;;;;;;;;;6.50;99.90;;;;;;4955502;28;19951;-67
2023/12/30 10:26:30;;;;;;;;;;;6.50;99.90;;;;;;5002112;28;19933;-69
2023/12/30 10:28:57;;;;;;;;;;;6.50;99.90;;;;;;4953589;28;20574;-68
2023/12/30 10:31:23;;;;;;;;;;;6.50;99.90;;;;;;4963346;28;19936;-67
2023/12/30 10:33:51;;;;;;;;;;;6.50;99.90;;;;;;4932042;28;19933;-74
2023/12/30 10:36:17;;;;;;;;;;;6.50;99.90;;;;;;4961656;28;19956;-73
2023/12/30 10:38:44;;;;;;;;;;;6.50;99.90;;;;;;4955115;28;19933;-72
2023/12/30 10:41:09;;;;;;;;;;;6.50;99.90;;;;;;4995165;28;19929;-72
2023/12/30 10:43:36;;;;;;;;;;;6.60;99.90;;;;;;4969809;28;20024;-73
2023/12/30 10:46:03;;;;;;;;;;;6.60;99.90;;;;;;4974633;28;19944;-72
2023/12/30 10:48:30;;;;;;;;;;;6.70;99.90;;;;;;5009737;28;19932;-72
2023/12/30 10:50:57;;;;;;;;;;;6.80;99.90;;;;;;4951606;28;19992;-72
2023/12/30 10:53:28;;;;;;;;;;;6.90;99.90;;;;;;4975656;28;20400;-72
2023/12/30 10:55:57;;;;;;;;;;;7.00;99.90;;;;;;4943531;28;19976;-72
2023/12/30 10:58:24;;;;;;;;;;;7.10;99.90;;;;;;4983258;28;20589;-73
2023/12/30 11:00:57;;;;;;;;;;;7.10;99.90;;;;;;4980624;28;19935;-72
2023/12/30 11:03:23;;;;;;;;;;;7.10;99.90;;;;;;4977196;28;19925;-71
2023/12/30 11:06:00;;;;;;;;;;;7.20;99.90;;;;;;4945186;28;19940;-71
2023/12/30 11:08:27;;;;;;;;;;;7.20;99.90;;;;;;4961461;28;19925;-72
2023/12/30 11:10:54;;;;;;;;;;;7.20;99.90;;;;;;4955290;28;19925;-72
2023/12/30 11:13:20;;;;;;;;;;;7.20;99.90;;;;;;4981238;28;20411;-71
2023/12/30 11:15:46;;;;;;;;;;;7.30;99.90;;;;;;4958337;28;19925;-71
2023/12/30 11:18:14;;;;;;;;;;;7.30;99.90;;;;;;4976599;28;19955;-72
2023/12/30 11:20:46;;;;;;;;;;;7.40;99.90;;;;;;4933780;28;19929;-72
2023/12/30 11:23:23;;;;;;;;;;;7.40;99.90;;;;;;4979222;28;19983;-73
2023/12/30 11:25:49;;;;;;;;;;;7.40;99.90;;;;;;4955535;28;20076;-68
2023/12/30 11:28:18;;;;;;;;;;;7.40;99.90;;;;;;4996797;28;20449;-69
2023/12/30 11:30:44;;;;;;;;;;;7.40;99.90;;;;;;4982401;28;19935;-68
2023/12/30 11:33:13;;;;;;;;;;;7.40;99.90;;;;;;4978229;28;19929;-67
2023/12/30 11:35:40;;;;;;;;;;;7.50;99.90;;;;;;4957951;28;19976;-67
2023/12/30 11:38:09;;;;;;;;;;;7.60;99.90;;;;;;4978579;28;19925;-67
2023/12/30 11:40:39;;;;;;;;;;;7.70;99.90;;;;;;4967916;28;19928;-67
2023/12/30 11:43:06;;;;;;;;;;;7.70;99.90;;;;;;4977784;28;20467;-69
2023/12/30 11:45:33;;;;;;;;;;;7.70;99.90;;;;;;4948795;28;19929;-69
2023/12/30 11:47:59;;;;;;;;;;;7.70;99.90;;;;;;4977604;28;19925;-67
2023/12/30 11:50:24;;;;;;;;;;;7.70;99.90;;;;;;4947812;28;19940;-68
2023/12/30 11:52:50;;;;;;;;;;;7.70;99.90;;;;;;4979036;28;19940;-68
2023/12/30 11:55:16;;;;;;;;;;;7.70;99.90;;;;;;4938698;28;20414;-66
2023/12/30 11:57:44;;;;;;;;;;;7.70;99.90;;;;;;4979497;28;19925;-68
2023/12/30 12:00:10;;;;;;;;;;;7.70;99.90;;;;;;4947555;28;20408;-67
2023/12/30 12:02:36;;;;;;;;;;;7.80;99.90;;;;;;4979368;28;19925;-68
2023/12/30 12:05:02;;;;;;;;;;;7.80;99.90;;;;;;4949108;28;19936;-68
2023/12/30 12:07:28;;;;;;;;;;;7.90;99.90;;;;;;4981192;28;19932;-66
2023/12/30 12:09:55;;;;;;;;;;;7.90;99.90;;;;;;4955741;28;20379;-73
2023/12/30 12:12:21;;;;;;;;;;;7.90;99.90;;;;;;4979130;28;20957;-72
2023/12/30 12:14:51;;;;;;;;;;;8.00;99.90;;;;;;4958636;28;20886;-72
2023/12/30 12:17:20;;;;;;;;;;;8.00;99.90;;;;;;4984477;28;19929;-72
2023/12/30 12:19:47;;;;;;;;;;;8.10;99.90;;;;;;4955258;28;19936;-69
2023/12/30 12:22:13;;;;;;;;;;;8.10;99.90;;;;;;4977884;28;19948;-69
2023/12/30 12:24:40;;;;;;;;;;;8.10;99.90;;;;;;4963118;28;19929;-69
2023/12/30 12:27:06;;;;;;;;;;;8.10;99.90;;;;;;4990916;28;19956;-69
2023/12/30 12:29:32;;;;;;;;;;;8.20;99.90;;;;;;4950824;28;21167;-68
2023/12/30 12:31:58;;;;;;;;;;;8.20;99.90;;;;;;4977298;28;20035;-67
2023/12/30 12:34:24;;;;;;;;;;;8.20;99.90;;;;;;4945532;28;19936;-68
2023/12/30 12:36:50;;;;;;;;;;;8.20;99.90;;;;;;4978009;28;19929;-69
2023/12/30 12:39:17;;;;;;;;;;;8.40;99.90;;;;;;4951664;28;19960;-68
2023/12/30 12:41:44;;;;;;;;;;;8.40;99.90;;;;;;4980959;28;19932;-68
2023/12/30 12:44:10;;;;;;;;;;;8.50;99.90;;;;;;4945389;28;19936;-67
2023/12/30 12:46:36;;;;;;;;;;;8.50;99.90;;;;;;4972230;28;19928;-68
2023/12/30 12:49:02;;;;;;;;;;;8.50;99.90;;;;;;4955034;28;20656;-68
2023/12/30 12:51:28;;;;;;;;;;;8.50;99.90;;;;;;4997241;28;20000;-67
2023/12/30 12:53:56;;;;;;;;;;;8.50;99.90;;;;;;4949016;28;20403;-68
2023/12/30 12:56:22;;;;;;;;;;;8.50;99.90;;;;;;4963355;28;19925;-72
2023/12/30 12:58:49;;;;;;;;;;;8.40;99.90;;;;;;4944915;28;19925;-73
2023/12/30 13:01:15;;;;;;;;;;;8.50;99.90;;;;;;4948078;28;21159;-73
2023/12/30 13:03:41;;;;;;;;;;;8.50;99.90;;;;;;4945583;28;19929;-73
2023/12/30 13:06:13;;;;;;;;;;;8.50;99.90;;;;;;4977107;28;19929;-73
2023/12/30 13:08:40;;;;;;;;;;;8.50;99.90;;;;;;4987511;28;19929;-72
2023/12/30 13:11:06;;;;;;;;;;;8.40;99.90;;;;;;4968686;28;21160;-68
2023/12/30 13:13:32;;;;;;;;;;;8.40;99.90;;;;;;4975912;28;19929;-69
2023/12/30 13:16:01;;;;;;;;;;;8.40;99.90;;;;;;4929881;28;19929;-67
2023/12/30 13:18:28;;;;;;;;;;;8.40;99.90;;;;;;4976357;28;19929;-72
2023/12/30 13:20:55;;;;;;;;;;;8.30;99.90;;;;;;4961477;28;19929;-72
2023/12/30 13:23:21;;;;;;;;;;;8.40;99.90;;;;;;4977677;28;19925;-72
2023/12/30 13:25:47;;;;;;;;;;;8.40;99.90;;;;;;4947046;28;19936;-72
2023/12/30 13:28:16;;;;;;;;;;;8.40;99.90;;;;;;4977324;28;20227;-72
2023/12/30 13:30:45;;;;;;;;;;;8.40;99.90;;;;;;4930899;28;19925;-68
2023/12/30 13:33:16;;;;;;;;;;;8.50;99.90;;;;;;4977155;28;19932;-70
2023/12/30 13:35:42;;;;;;;;;;;8.40;99.90;;;;;;4952133;28;19925;-71
2023/12/30 13:38:15;;;;;;;;;;;8.50;99.90;;;;;;4953922;28;20430;-70
2023/12/30 13:40:44;;;;;;;;;;;8.50;99.90;;;;;;4969532;28;19928;-68
2023/12/30 13:43:10;;;;;;;;;;;8.60;99.90;;;;;;4968668;28;19929;-67
2023/12/30 13:45:38;;;;;;;;;;;8.60;99.90;;;;;;4943855;28;19929;-67
2023/12/30 13:50:36;;;;;;;;;;;8.50;99.90;;;;;;4972776;28;20955;-68
2023/12/30 13:53:03;;;;;;;;;;;8.50;99.90;;;;;;4975174;28;19936;-67
2023/12/30 13:55:31;;;;;;;;;;;8.50;99.90;;;;;;4951430;28;19925;-68
2023/12/30 13:57:57;;;;;;;;;;;8.50;99.90;;;;;;4992690;28;19932;-68
2023/12/30 14:00:23;;;;;;;;;;;8.50;99.90;;;;;;4953395;28;20402;-67
2023/12/30 14:02:50;;;;;;;;;;;8.50;99.90;;;;;;4984971;28;19925;-68
2023/12/30 14:05:28;;;;;;;;;;;8.50;99.90;;;;;;4955418;28;19929;-67
2023/12/30 14:07:54;;;;;;;;;;;8.40;99.90;;;;;;4990112;28;20112;-67
2023/12/30 14:10:20;;;;;;;;;;;8.40;99.90;;;;;;4946417;28;20468;-68
2023/12/30 14:12:47;;;;;;;;;;;8.40;99.90;;;;;;4981315;28;19925;-66
2023/12/30 14:15:15;;;;;;;;;;;8.40;99.90;;;;;;4955974;28;19932;-68
2023/12/30 14:17:42;;;;;;;;;;;8.40;99.90;;;;;;4977895;28;19929;-66
2023/12/30 14:20:10;;;;;;;;;;;8.30;99.90;;;;;;4950304;28;20001;-66
2023/12/30 14:22:36;;;;;;;;;;;8.30;99.90;;;;;;4975612;28;20555;-67
2023/12/30 14:25:07;;;;;;;;;;;8.30;99.90;;;;;;4957556;28;19924;-68
2023/12/30 14:27:34;;;;;;;;;;;8.30;99.90;;;;;;4995152;28;19944;-68
2023/12/30 14:30:01;;;;;;;;;;;8.20;99.90;;;;;;4962237;28;19958;-67